createdAt,value
2018-01-25T00:01:44.523Z,3.50
2018-01-25T00:04:13.358Z,3.90
2018-01-25T00:06:42.243Z,4.97
2018-01-25T00:09:11.134Z,3.50
2018-01-25T00:11:39.989Z,4.70
2018-01-25T00:14:08.875Z,4.67
2018-01-25T00:16:37.721Z,4.70
2018-01-25T00:19:06.562Z,3.70
2018-01-25T00:21:35.441Z,4.87
2018-01-25T00:24:04.281Z,3.60
2018-01-25T00:26:33.131Z,4.77
2018-01-25T00:29:02.025Z,4.37
2018-01-25T00:31:30.919Z,4.47
2018-01-25T00:33:59.750Z,4.60
2018-01-25T00:36:28.599Z,4.83
2018-01-25T00:38:57.428Z,4.90
2018-01-25T00:41:26.259Z,5.37
2018-01-25T00:43:55.198Z,4.80
2018-01-25T00:46:24.035Z,5.10
2018-01-25T00:48:53.412Z,5.50
2018-01-25T00:51:22.275Z,5.80
2018-01-25T00:53:51.167Z,5.50
2018-01-25T00:56:20.057Z,5.40
2018-01-25T00:58:48.913Z,7.20
2018-01-25T01:01:17.831Z,5.70
2018-01-25T01:03:46.817Z,5.30
2018-01-25T01:06:15.685Z,8.50
2018-01-25T01:08:44.521Z,4.70
2018-01-25T01:11:14.070Z,5.23
2018-01-25T01:13:42.919Z,4.47
2018-01-25T01:16:11.815Z,5.77
2018-01-25T01:18:40.740Z,5.37
2018-01-25T01:21:09.593Z,5.07
2018-01-25T01:23:38.440Z,5.20
2018-01-25T01:26:07.979Z,5.27
2018-01-25T01:28:36.820Z,5.17
2018-01-25T01:31:05.678Z,5.10
2018-01-25T01:33:34.552Z,4.50
2018-01-25T01:36:03.426Z,7.30
2018-01-25T01:38:32.271Z,5.00
2018-01-25T01:41:01.161Z,5.47
2018-01-25T01:43:30.756Z,5.47
2018-01-25T01:46:00.283Z,4.47
2018-01-25T01:48:29.192Z,5.57
2018-01-25T01:50:58.114Z,3.10
2018-01-25T01:53:26.951Z,3.03
2018-01-25T01:55:55.828Z,2.80
2018-01-25T01:58:24.675Z,2.60
2018-01-25T02:00:53.546Z,2.77
2018-01-25T02:03:22.412Z,4.27
2018-01-25T02:05:51.261Z,3.47
2018-01-25T02:08:20.136Z,3.20
2018-01-25T02:10:49.032Z,3.63
2018-01-25T02:13:17.887Z,2.40
2018-01-25T02:15:46.797Z,3.20
2018-01-25T02:18:15.678Z,4.83
2018-01-25T02:20:44.608Z,3.43
2018-01-25T02:23:13.458Z,3.90
2018-01-25T02:25:42.797Z,3.27
2018-01-25T02:28:11.644Z,2.07
2018-01-25T02:30:40.501Z,5.03
2018-01-25T02:33:09.351Z,2.03
2018-01-25T02:35:38.202Z,4.57
2018-01-25T02:38:07.099Z,1.97
2018-01-25T02:40:36.001Z,2.37
2018-01-25T02:43:04.899Z,1.33
2018-01-25T02:45:33.735Z,2.77
2018-01-25T02:48:02.627Z,4.20
2018-01-25T02:50:32.731Z,2.77
2018-01-25T02:53:01.618Z,2.17
2018-01-25T02:55:30.821Z,2.43
2018-01-25T02:57:59.661Z,2.50
2018-01-25T03:00:28.513Z,2.57
2018-01-25T03:02:57.398Z,3.50
2018-01-25T03:05:26.261Z,4.10
2018-01-25T03:07:55.144Z,4.03
2018-01-25T03:10:24.009Z,2.53
2018-01-25T03:12:52.878Z,1.70
2018-01-25T03:15:21.742Z,2.80
2018-01-25T03:17:50.604Z,1.97
2018-01-25T03:20:19.450Z,3.03
2018-01-25T03:22:48.297Z,3.83
2018-01-25T03:25:17.206Z,3.17
2018-01-25T03:27:46.060Z,4.00
2018-01-25T03:30:14.891Z,3.57
2018-01-25T03:32:43.785Z,1.90
2018-01-25T03:35:12.618Z,2.60
2018-01-25T03:37:41.462Z,3.20
2018-01-25T03:40:10.346Z,3.27
2018-01-25T03:42:39.201Z,7.13
2018-01-25T03:45:08.622Z,1.80
2018-01-25T03:47:39.416Z,2.17
2018-01-25T03:50:08.262Z,2.87
2018-01-25T03:52:37.136Z,3.27
2018-01-25T03:55:06.005Z,2.13
2018-01-25T03:57:35.094Z,3.03
2018-01-25T04:00:03.944Z,3.67
2018-01-25T04:02:33.754Z,4.50
2018-01-25T04:05:02.655Z,2.63
2018-01-25T04:07:31.537Z,3.60
2018-01-25T04:10:00.418Z,2.97
2018-01-25T04:12:29.265Z,3.90
2018-01-25T04:14:58.264Z,5.47
2018-01-25T04:17:27.216Z,3.80
2018-01-25T04:19:56.842Z,7.10
2018-01-25T04:22:25.676Z,3.83
2018-01-25T04:24:54.532Z,3.50
2018-01-25T04:27:23.359Z,2.90
2018-01-25T04:29:52.210Z,5.17
2018-01-25T04:32:21.101Z,5.07
2018-01-25T04:34:49.942Z,2.83
2018-01-25T04:37:18.842Z,4.83
2018-01-25T04:39:47.760Z,3.47
2018-01-25T04:42:16.592Z,4.20
2018-01-25T04:44:45.434Z,3.57
2018-01-25T04:47:14.322Z,3.17
2018-01-25T04:49:43.162Z,4.30
2018-01-25T04:52:11.993Z,4.43
2018-01-25T04:54:40.848Z,2.60
2018-01-25T04:57:09.730Z,4.57
2018-01-25T04:59:38.588Z,3.23
2018-01-25T05:02:07.478Z,3.97
2018-01-25T05:04:36.308Z,5.60
2018-01-25T05:07:05.175Z,5.70
2018-01-25T05:09:34.042Z,4.97
2018-01-25T05:12:02.912Z,3.37
2018-01-25T05:14:31.784Z,5.60
2018-01-25T05:17:12.575Z,5.67
2018-01-25T05:19:42.056Z,3.77
2018-01-25T05:22:11.468Z,4.67
2018-01-25T05:24:40.419Z,5.07
2018-01-25T05:27:09.250Z,3.33
2018-01-25T05:29:38.138Z,6.60
2018-01-25T05:32:08.011Z,5.60
2018-01-25T05:34:36.844Z,6.30
2018-01-25T05:37:05.684Z,5.20
2018-01-25T05:39:34.582Z,7.43
2018-01-25T05:42:03.448Z,4.67
2018-01-25T05:44:32.370Z,7.57
2018-01-25T05:47:01.288Z,5.43
2018-01-25T05:49:30.222Z,5.47
2018-01-25T05:51:59.058Z,7.57
2018-01-25T05:54:27.940Z,7.33
2018-01-25T05:56:56.788Z,7.13
2018-01-25T05:59:26.416Z,6.00
2018-01-25T06:01:56.026Z,6.20
2018-01-25T06:04:24.858Z,6.23
2018-01-25T06:06:53.694Z,8.10
2018-01-25T06:09:22.564Z,6.70
2018-01-25T06:11:51.386Z,5.53
2018-01-25T06:14:20.269Z,5.03
2018-01-25T06:16:49.154Z,7.37
2018-01-25T06:19:18.005Z,6.00
2018-01-25T06:21:46.897Z,9.03
2018-01-25T06:24:15.790Z,5.23
2018-01-25T06:26:45.176Z,9.07
2018-01-25T06:29:14.003Z,10.13
2018-01-25T06:31:42.870Z,7.37
2018-01-25T06:34:11.699Z,7.53
2018-01-25T06:36:40.534Z,8.53
2018-01-25T06:39:10.500Z,8.40
2018-01-25T06:41:40.162Z,7.70
2018-01-25T06:44:09.016Z,7.67
2018-01-25T06:46:37.902Z,6.83
2018-01-25T06:49:06.745Z,10.97
2018-01-25T06:51:35.584Z,8.13
2018-01-25T06:54:04.498Z,6.00
2018-01-25T06:56:33.382Z,8.20
2018-01-25T06:59:02.284Z,7.97
2018-01-25T07:01:31.179Z,7.00
2018-01-25T07:04:00.026Z,5.50
2018-01-25T07:06:28.992Z,7.30
2018-01-25T07:08:57.946Z,8.50
2018-01-25T07:11:26.814Z,8.77
2018-01-25T07:13:55.664Z,8.23
2018-01-25T07:16:24.548Z,9.73
2018-01-25T07:18:53.394Z,8.97
2018-01-25T07:21:22.280Z,8.90
2018-01-25T07:23:51.600Z,6.50
2018-01-25T07:26:20.430Z,10.90
2018-01-25T07:28:49.296Z,8.77
2018-01-25T07:31:18.408Z,7.70
2018-01-25T07:33:47.814Z,6.17
2018-01-25T07:36:16.708Z,8.10
2018-01-25T07:38:45.580Z,7.70
2018-01-25T07:41:14.414Z,7.93
2018-01-25T07:43:43.304Z,6.70
2018-01-25T07:46:12.206Z,7.20
2018-01-25T07:48:41.052Z,6.00
2018-01-25T07:51:09.912Z,6.47
2018-01-25T07:53:38.834Z,7.33
2018-01-25T07:56:07.675Z,10.57
2018-01-25T07:58:36.530Z,9.40
2018-01-25T08:01:05.408Z,10.77
2018-01-25T08:03:35.210Z,7.50
2018-01-25T08:06:05.058Z,6.13
2018-01-25T08:08:34.296Z,6.43
2018-01-25T08:11:03.166Z,8.43
2018-01-25T08:13:37.827Z,11.47
2018-01-25T08:16:12.523Z,9.87
2018-01-25T08:18:41.692Z,8.40
2018-01-25T08:21:10.526Z,8.10
2018-01-25T08:23:39.460Z,7.93
2018-01-25T08:26:08.379Z,7.87
2018-01-25T08:28:37.224Z,18.43
2018-01-25T08:31:06.087Z,8.07
2018-01-25T08:33:35.023Z,10.20
2018-01-25T08:36:03.883Z,8.30
2018-01-25T08:38:32.755Z,12.63
2018-01-25T08:41:02.315Z,11.20
2018-01-25T08:43:31.180Z,10.53
2018-01-25T08:46:00.022Z,8.73
2018-01-25T08:48:28.879Z,10.47
2018-01-25T08:50:57.737Z,8.33
2018-01-25T08:53:26.623Z,6.83
2018-01-25T08:55:56.183Z,10.23
2018-01-25T08:58:25.067Z,9.43
2018-01-25T09:00:53.936Z,10.23
2018-01-25T09:03:22.823Z,7.80
2018-01-25T09:05:51.678Z,10.60
2018-01-25T09:08:20.535Z,5.50
2018-01-25T09:10:50.110Z,8.60
2018-01-25T09:13:18.968Z,9.27
2018-01-25T09:15:47.832Z,7.13
2018-01-25T09:18:16.694Z,10.07
2018-01-25T09:20:45.534Z,9.03
2018-01-25T09:23:14.370Z,7.47
2018-01-25T09:25:43.282Z,11.37
2018-01-25T09:28:12.407Z,9.37
2018-01-25T09:30:41.291Z,7.43
2018-01-25T09:33:10.167Z,8.80
2018-01-25T09:35:39.017Z,10.73
2018-01-25T09:38:08.048Z,11.67
2018-01-25T09:40:37.095Z,12.40
2018-01-25T09:43:06.178Z,9.23
2018-01-25T09:45:36.113Z,11.07
2018-01-25T09:48:05.293Z,6.43
2018-01-25T09:50:34.247Z,9.73
2018-01-25T09:53:04.022Z,8.67
2018-01-25T09:55:32.938Z,11.80
2018-01-25T09:58:01.778Z,8.23
2018-01-25T10:00:30.647Z,6.80
2018-01-25T10:02:59.518Z,8.27
2018-01-25T10:05:28.374Z,6.10
2018-01-25T10:07:57.951Z,9.60
2018-01-25T10:10:26.827Z,11.10
2018-01-25T10:12:55.664Z,9.57
2018-01-25T10:15:25.088Z,8.90
2018-01-25T10:17:53.941Z,9.03
2018-01-25T10:20:22.786Z,10.77
2018-01-25T10:22:51.648Z,8.47
2018-01-25T10:25:20.500Z,9.70
2018-01-25T10:27:49.463Z,12.20
2018-01-25T10:30:18.356Z,8.43
2018-01-25T10:32:47.194Z,14.93
2018-01-25T10:35:16.048Z,9.77
2018-01-25T10:37:44.902Z,7.10
2018-01-25T10:40:13.732Z,7.40
2018-01-25T10:42:43.554Z,7.63
2018-01-25T10:45:12.442Z,10.97
2018-01-25T10:47:41.295Z,7.27
2018-01-25T10:50:10.134Z,8.07
2018-01-25T10:52:39.050Z,10.33
2018-01-25T10:55:07.892Z,10.53
2018-01-25T10:57:37.408Z,9.43
2018-01-25T11:00:06.304Z,12.03
2018-01-25T11:02:35.168Z,6.77
2018-01-25T11:05:05.097Z,15.10
2018-01-25T11:07:33.988Z,8.03
2018-01-25T11:10:03.013Z,12.03
2018-01-25T11:12:31.866Z,9.43
2018-01-25T11:15:00.752Z,9.33
2018-01-25T11:17:29.599Z,10.60
2018-01-25T11:19:58.448Z,12.50
2018-01-25T11:22:27.326Z,8.30
2018-01-25T11:24:56.170Z,9.40
2018-01-25T11:27:25.094Z,11.67
2018-01-25T11:29:53.980Z,17.27
2018-01-25T11:32:22.825Z,12.37
2018-01-25T11:34:51.662Z,9.70
2018-01-25T11:37:20.516Z,12.03
2018-01-25T11:39:49.366Z,7.63
2018-01-25T11:42:18.213Z,11.10
2018-01-25T11:44:47.113Z,11.70
2018-01-25T11:47:15.990Z,11.40
2018-01-25T11:49:45.416Z,16.30
2018-01-25T11:52:14.316Z,11.50
2018-01-25T11:54:43.191Z,14.40
2018-01-25T11:57:12.035Z,12.47
2018-01-25T11:59:40.908Z,12.70
2018-01-25T12:02:09.750Z,9.03
2018-01-25T12:04:38.781Z,13.33
2018-01-25T12:07:08.143Z,10.70
2018-01-25T12:09:36.990Z,14.33
2018-01-25T12:12:05.830Z,8.13
2018-01-25T12:14:34.673Z,7.00
2018-01-25T12:17:03.532Z,11.53
2018-01-25T12:19:32.376Z,11.00
2018-01-25T12:22:01.244Z,11.13
2018-01-25T12:24:30.108Z,12.53
2018-01-25T12:26:59.792Z,12.30
2018-01-25T12:29:28.684Z,13.33
2018-01-25T12:31:57.525Z,13.97
2018-01-25T12:34:26.378Z,8.30
2018-01-25T12:36:55.284Z,9.03
2018-01-25T12:39:24.127Z,10.63
2018-01-25T12:41:53.178Z,8.67
2018-01-25T12:44:22.338Z,11.77
2018-01-25T12:46:51.228Z,8.80
2018-01-25T12:49:21.864Z,10.00
2018-01-25T12:51:51.150Z,13.37
2018-01-25T12:54:20.004Z,11.17
2018-01-25T12:56:48.884Z,8.60
2018-01-25T12:59:17.770Z,7.70
2018-01-25T13:01:46.620Z,11.63
2018-01-25T13:04:15.502Z,7.50
2018-01-25T13:06:44.382Z,12.37
2018-01-25T13:09:13.249Z,8.87
2018-01-25T13:11:42.098Z,12.77
2018-01-25T13:14:11.558Z,9.33
2018-01-25T13:16:40.400Z,11.37
2018-01-25T13:19:09.248Z,13.00
2018-01-25T13:21:38.133Z,12.27
2018-01-25T13:24:06.990Z,9.73
2018-01-25T13:26:35.820Z,9.10
2018-01-25T13:29:04.740Z,11.30
2018-01-25T13:31:33.656Z,10.60
2018-01-25T13:34:02.521Z,9.70
2018-01-25T13:36:31.422Z,7.63
2018-01-25T13:39:00.262Z,9.63
2018-01-25T13:41:29.114Z,9.77
2018-01-25T13:43:58.010Z,10.67
2018-01-25T13:46:26.862Z,8.13
2018-01-25T13:48:55.710Z,9.30
2018-01-25T13:51:24.612Z,11.40
2018-01-25T13:53:53.495Z,12.93
2018-01-25T13:56:22.428Z,6.50
2018-01-25T13:58:51.350Z,8.53
2018-01-25T14:01:20.214Z,13.23
2018-01-25T14:03:49.053Z,9.93
2018-01-25T14:06:18.820Z,8.03
2018-01-25T14:08:48.276Z,12.33
2018-01-25T14:11:17.234Z,13.13
2018-01-25T14:13:46.126Z,12.57
2018-01-25T14:16:15.050Z,8.27
2018-01-25T14:18:43.899Z,15.20
2018-01-25T14:21:12.920Z,11.77
2018-01-25T14:23:41.837Z,10.97
2018-01-25T14:26:10.725Z,11.87
2018-01-25T14:28:40.396Z,11.87
2018-01-25T14:31:09.252Z,12.07
2018-01-25T14:33:39.002Z,11.73
2018-01-25T14:36:08.368Z,10.47
2018-01-25T14:38:37.196Z,12.83
2018-01-25T14:41:06.060Z,12.87
2018-01-25T14:43:37.630Z,10.50
2018-01-25T14:46:07.476Z,8.23
2018-01-25T14:48:36.350Z,11.47
2018-01-25T14:51:05.209Z,12.00
2018-01-25T14:53:34.081Z,12.57
2018-01-25T14:56:03.167Z,9.80
2018-01-25T14:58:32.020Z,9.73
2018-01-25T15:01:00.886Z,11.17
2018-01-25T15:03:30.243Z,11.63
2018-01-25T15:05:59.081Z,9.70
2018-01-25T15:08:27.966Z,12.07
2018-01-25T15:10:56.796Z,9.10
2018-01-25T15:13:29.028Z,7.90
2018-01-25T15:15:57.902Z,13.00
2018-01-25T15:18:27.598Z,12.70
2018-01-25T15:20:56.474Z,10.67
2018-01-25T15:23:25.358Z,12.07
2018-01-25T15:25:59.925Z,10.60
2018-01-25T15:28:29.512Z,11.47
2018-01-25T15:30:58.390Z,8.03
2018-01-25T15:33:27.273Z,11.27
2018-01-25T15:35:56.157Z,9.07
2018-01-25T15:38:24.992Z,12.97
2018-01-25T15:40:53.957Z,14.70
2018-01-25T15:43:22.806Z,13.40
2018-01-25T15:45:51.776Z,8.17
2018-01-25T15:48:20.694Z,9.20
2018-01-25T15:50:49.586Z,12.20
2018-01-25T15:53:18.475Z,11.90
2018-01-25T15:56:03.991Z,19.77
2018-01-25T15:58:32.834Z,16.50
2018-01-25T16:01:02.445Z,15.50
2018-01-25T16:03:31.357Z,16.17
2018-01-25T16:06:00.972Z,14.87
2018-01-25T16:08:36.732Z,15.13
2018-01-25T16:11:06.158Z,15.23
2018-01-25T16:13:35.042Z,12.60
2018-01-25T16:16:03.928Z,10.83
2018-01-25T16:18:32.780Z,14.50
2018-01-25T16:21:01.902Z,12.87
2018-01-25T16:23:30.842Z,12.73
2018-01-25T16:25:59.718Z,13.67
2018-01-25T16:28:31.596Z,18.10
2018-01-25T16:31:01.144Z,9.57
2018-01-25T16:33:29.982Z,8.23
2018-01-25T16:35:58.890Z,12.53
2018-01-25T16:38:27.746Z,10.27
2018-01-25T16:40:56.584Z,8.97
2018-01-25T16:43:25.522Z,7.77
2018-01-25T16:45:54.892Z,7.30
2018-01-25T16:48:24.516Z,9.23
2018-01-25T16:50:53.418Z,8.40
2018-01-25T16:53:22.284Z,6.63
2018-01-25T16:55:51.515Z,4.53
2018-01-25T16:58:20.365Z,3.90
2018-01-25T17:00:49.218Z,4.93
2018-01-25T17:03:18.118Z,7.87
2018-01-25T17:05:47.144Z,5.17
2018-01-25T17:08:16.886Z,6.63
2018-01-25T17:10:45.879Z,3.57
2018-01-25T17:13:14.770Z,7.70
2018-01-25T17:15:43.926Z,4.90
2018-01-25T17:18:12.766Z,6.30
2018-01-25T17:20:42.596Z,10.70
2018-01-25T17:23:12.134Z,7.37
2018-01-25T17:25:41.060Z,6.43
2018-01-25T17:28:11.547Z,7.50
2018-01-25T17:30:40.386Z,4.87
2018-01-25T17:33:09.726Z,4.50
2018-01-25T17:35:38.620Z,6.57
2018-01-25T17:40:46.990Z,5.40
2018-01-25T17:43:16.626Z,7.53
2018-01-25T17:45:45.498Z,5.50
2018-01-25T17:48:18.046Z,6.43
2018-01-25T17:50:46.948Z,6.43
2018-01-25T17:53:15.866Z,7.67
2018-01-25T17:55:44.724Z,7.40
2018-01-25T17:58:13.608Z,6.07
2018-01-25T18:00:42.470Z,5.93
2018-01-25T18:03:11.686Z,4.73
2018-01-25T18:05:40.526Z,10.07
2018-01-25T18:08:09.448Z,5.87
2018-01-25T18:10:38.287Z,8.77
2018-01-25T18:13:07.330Z,6.20
2018-01-25T18:15:36.220Z,6.40
2018-01-25T18:18:05.084Z,8.93
2018-01-25T18:20:37.732Z,7.77
2018-01-25T18:23:08.684Z,6.77
2018-01-25T18:25:37.566Z,6.40
2018-01-25T18:28:06.502Z,11.33
2018-01-25T18:30:35.348Z,10.13
2018-01-25T18:33:04.194Z,9.93
2018-01-25T18:35:33.834Z,9.60
2018-01-25T18:38:02.734Z,7.73
2018-01-25T18:40:31.650Z,7.93
2018-01-25T18:43:00.513Z,9.43
2018-01-25T18:45:29.387Z,10.93
2018-01-25T18:47:58.230Z,8.50
2018-01-25T18:50:27.123Z,11.97
2018-01-25T18:52:55.955Z,9.93
2018-01-25T18:55:24.797Z,10.67
2018-01-25T18:57:53.730Z,12.27
2018-01-25T19:00:22.580Z,8.40
2018-01-25T19:02:53.558Z,10.77
2018-01-25T19:05:22.646Z,10.97
2018-01-25T19:07:51.502Z,12.40
2018-01-25T19:10:20.344Z,11.63
2018-01-25T19:12:49.466Z,10.80
2018-01-25T19:15:18.538Z,7.67
2018-01-25T19:17:47.416Z,11.00
2018-01-25T19:20:16.271Z,9.27
2018-01-25T19:22:45.137Z,11.27
2018-01-25T19:25:14.036Z,9.80
2018-01-25T19:27:42.945Z,11.63
2018-01-25T19:30:11.816Z,9.07
2018-01-25T19:32:40.677Z,11.57
2018-01-25T19:35:09.546Z,10.00
2018-01-25T19:37:38.376Z,8.63
2018-01-25T19:40:07.240Z,12.77
2018-01-25T19:42:36.588Z,9.20
2018-01-25T19:45:05.450Z,9.93
2018-01-25T19:47:34.300Z,8.77
2018-01-25T19:50:03.253Z,12.07
2018-01-25T19:52:32.150Z,9.53
2018-01-25T19:55:01.064Z,9.90
2018-01-25T19:57:29.934Z,9.47
2018-01-25T19:59:58.810Z,8.47
2018-01-25T20:02:27.916Z,6.60
2018-01-25T20:04:57.672Z,11.20
2018-01-25T20:07:26.546Z,13.07
2018-01-25T20:09:56.360Z,12.07
2018-01-25T20:12:25.316Z,8.53
2018-01-25T20:14:54.282Z,10.63
2018-01-25T20:17:23.996Z,9.93
2018-01-25T20:19:52.945Z,10.27
2018-01-25T20:22:22.088Z,10.60
2018-01-25T20:24:51.002Z,11.73
2018-01-25T20:27:19.944Z,10.37
2018-01-25T20:29:48.825Z,11.80
2018-01-25T20:32:17.675Z,10.53
2018-01-25T20:34:46.572Z,11.67
2018-01-25T20:37:15.436Z,10.87
2018-01-25T20:39:44.536Z,13.07
2018-01-25T20:42:14.124Z,9.37
2018-01-25T20:44:43.020Z,14.23
2018-01-25T20:47:11.878Z,14.07
2018-01-25T20:49:40.775Z,11.83
2018-01-25T20:52:09.632Z,12.10
2018-01-25T20:54:38.747Z,11.83
2018-01-25T20:57:07.649Z,13.20
2018-01-25T20:59:36.500Z,14.87
2018-01-25T21:02:05.555Z,14.50
2018-01-25T21:04:34.978Z,14.67
2018-01-25T21:07:04.032Z,15.03
2018-01-25T21:09:33.034Z,11.50
2018-01-25T21:12:01.912Z,15.47
2018-01-25T21:14:31.070Z,13.63
2018-01-25T21:16:59.957Z,15.10
2018-01-25T21:19:28.890Z,14.70
2018-01-25T21:21:57.762Z,14.97
2018-01-25T21:24:26.740Z,17.07
2018-01-25T21:26:56.291Z,13.97
2018-01-25T21:29:25.136Z,14.63
2018-01-25T21:31:54.016Z,11.23
2018-01-25T21:34:22.922Z,16.03
2018-01-25T21:36:52.634Z,14.83
2018-01-25T21:39:21.668Z,15.07
2018-01-25T21:41:51.125Z,15.10
2018-01-25T21:44:19.971Z,16.27
2018-01-25T21:46:48.844Z,17.77
2018-01-25T21:49:17.690Z,14.53
2018-01-25T21:51:46.618Z,16.87
2018-01-25T21:54:15.508Z,13.73
2018-01-25T21:56:44.360Z,16.73
2018-01-25T21:59:13.250Z,17.40
2018-01-25T22:01:42.132Z,17.10
2018-01-25T22:04:10.976Z,15.33
2018-01-25T22:06:39.830Z,22.13
2018-01-25T22:09:08.712Z,26.50
2018-01-25T22:11:38.082Z,17.63
2018-01-25T22:14:07.244Z,14.37
2018-01-25T22:16:36.432Z,18.00
2018-01-25T22:19:05.590Z,17.83
2018-01-25T22:21:34.448Z,17.00
2018-01-25T22:24:04.180Z,18.40
2018-01-25T22:26:33.030Z,16.83
2018-01-25T22:29:01.940Z,14.93
2018-01-25T22:31:31.118Z,14.57
2018-01-25T22:34:00.025Z,14.47
2018-01-25T22:36:28.971Z,17.70
2018-01-25T22:38:57.848Z,16.50
2018-01-25T22:41:26.688Z,15.47
2018-01-25T22:43:55.562Z,18.77
2018-01-25T22:46:24.480Z,12.67
2018-01-25T22:48:55.108Z,18.73
2018-01-25T22:51:24.848Z,16.57
2018-01-25T22:53:53.708Z,17.37
2018-01-25T22:56:23.050Z,13.77
2018-01-25T22:58:51.998Z,13.40
2018-01-25T23:01:20.861Z,16.70
2018-01-25T23:03:49.686Z,19.57
2018-01-25T23:06:18.768Z,17.30
2018-01-25T23:08:51.184Z,18.47
2018-01-25T23:11:24.930Z,16.50
2018-01-25T23:13:55.659Z,15.87
2018-01-25T23:16:24.628Z,23.50
2018-01-25T23:18:54.074Z,20.03
2018-01-25T23:21:22.926Z,14.83
2018-01-25T23:26:34.674Z,20.43
2018-01-25T23:29:04.662Z,19.17
2018-01-25T23:31:33.997Z,20.27
2018-01-25T23:34:02.858Z,15.70
2018-01-25T23:36:31.796Z,16.87
2018-01-25T23:39:00.712Z,18.77
2018-01-25T23:41:30.212Z,15.97
2018-01-25T23:43:59.936Z,22.80
2018-01-25T23:46:29.175Z,18.73
2018-01-25T23:49:01.182Z,18.20
2018-01-25T23:51:30.018Z,20.83
2018-01-25T23:53:58.934Z,19.17
2018-01-25T23:56:27.828Z,14.77
2018-01-25T23:58:56.732Z,20.23
